Saint Peter Port, United Kingdom
Current Conditions -  °F | °C
As of 10:20 AM on Wednesday 28 Jan 2015 (Local Time) from EGJB Reporting Station
Light Rain Light Rain  
Wind Chill: 10°   Ceiling: 300
Heat Index: 10°   Visibility: 2.1mi
Dew Point: 10°   Wind: 25mph
Humidity: 100%   Direction: 240°WSW
Pressure: 29.85"   Gusts: NA
Location:  49.46°N, 2.54°W
Report Text: EGJB 280920Z 24022KT 3500 -RADZ SCT001 BKN003 10/10 Q1011 REDZ
Loading
Personal Weather Stations






























Interactive Weather Map New forecast layout! Learn more

10-Day Weather Forecast

Advertisements
Track Severe Weather on mobile